createdAt,value
2018-07-12T00:00:01.183Z,15.30
2018-07-12T00:02:28.674Z,15.20
2018-07-12T00:07:23.983Z,15.20
2018-07-12T00:09:51.593Z,15.20
2018-07-12T00:12:19.134Z,15.30
2018-07-12T00:14:46.631Z,15.30
2018-07-12T00:17:14.206Z,15.40
2018-07-12T00:19:41.718Z,15.40
2018-07-12T00:22:09.201Z,15.40
2018-07-12T00:24:36.718Z,15.40
2018-07-12T00:27:04.477Z,15.40
2018-07-12T00:29:32.027Z,15.30
2018-07-12T00:31:59.614Z,15.40
2018-07-12T00:34:27.121Z,15.40
2018-07-12T00:36:54.574Z,15.40
2018-07-12T00:39:22.067Z,15.50
2018-07-12T00:41:49.555Z,15.50
2018-07-12T00:44:17.095Z,15.50
2018-07-12T00:46:44.622Z,15.50
2018-07-12T00:49:12.164Z,15.50
2018-07-12T00:51:39.712Z,15.50
2018-07-12T00:54:07.493Z,15.60
2018-07-12T00:56:35.126Z,15.60
2018-07-12T00:59:02.682Z,15.60
2018-07-12T01:01:30.168Z,15.60
2018-07-12T01:03:57.746Z,15.70
2018-07-12T01:06:26.005Z,15.70
2018-07-12T01:08:53.482Z,15.70
2018-07-12T01:11:20.987Z,15.70
2018-07-12T01:13:48.470Z,15.70
2018-07-12T01:16:16.049Z,15.70
2018-07-12T01:18:43.752Z,15.60
2018-07-12T01:21:11.310Z,15.70
2018-07-12T01:23:38.816Z,15.70
2018-07-12T01:26:06.752Z,15.70
2018-07-12T01:28:34.290Z,15.70
2018-07-12T01:31:01.987Z,15.70
2018-07-12T01:33:29.612Z,15.70
2018-07-12T01:38:25.028Z,15.70
2018-07-12T01:40:52.514Z,15.70
2018-07-12T01:43:19.970Z,15.70
2018-07-12T01:45:47.638Z,15.70
2018-07-12T01:48:15.135Z,15.70
2018-07-12T01:50:42.766Z,15.70
2018-07-12T01:53:10.219Z,15.60
2018-07-12T01:55:37.708Z,15.70
2018-07-12T01:58:05.309Z,15.70
2018-07-12T02:00:32.883Z,15.70
2018-07-12T02:03:00.424Z,15.70
2018-07-12T02:05:28.050Z,15.70
2018-07-12T02:07:55.562Z,15.60
2018-07-12T02:10:23.067Z,15.60
2018-07-12T02:12:50.761Z,15.60
2018-07-12T02:15:18.469Z,15.60
2018-07-12T02:17:46.102Z,15.70
2018-07-12T02:22:42.305Z,15.70
2018-07-12T02:25:09.785Z,15.70
2018-07-12T02:27:37.328Z,15.70
2018-07-12T02:30:04.824Z,15.80
2018-07-12T02:32:32.400Z,15.70
2018-07-12T02:34:59.864Z,15.70
2018-07-12T02:37:27.348Z,15.80
2018-07-12T02:39:55.084Z,15.80
2018-07-12T02:42:22.797Z,15.80
2018-07-12T02:44:51.368Z,15.80
2018-07-12T02:47:19.331Z,15.80
2018-07-12T02:49:47.047Z,15.70
2018-07-12T02:52:15.033Z,15.70
2018-07-12T02:54:42.784Z,15.70
2018-07-12T02:57:10.376Z,15.70
2018-07-12T02:59:37.882Z,15.70
2018-07-12T03:02:05.428Z,15.60
2018-07-12T03:07:00.689Z,15.70
2018-07-12T03:09:28.236Z,15.70
2018-07-12T03:11:55.758Z,15.70
2018-07-12T03:16:51.040Z,15.70
2018-07-12T03:19:18.494Z,15.80
2018-07-12T03:21:46.010Z,15.80
2018-07-12T03:24:13.474Z,15.70
2018-07-12T03:29:08.812Z,15.70
2018-07-12T03:31:36.317Z,15.70
2018-07-12T03:34:03.797Z,15.70
2018-07-12T03:36:31.509Z,15.80
2018-07-12T03:38:59.020Z,15.80
2018-07-12T03:41:26.556Z,15.80
2018-07-12T03:43:54.031Z,15.80
2018-07-12T03:46:21.693Z,15.80
2018-07-12T03:48:49.287Z,15.80
2018-07-12T03:51:16.869Z,15.80
2018-07-12T03:53:44.378Z,15.70
2018-07-12T03:56:11.841Z,15.70
2018-07-12T03:58:39.398Z,15.70
2018-07-12T04:01:06.915Z,15.70
2018-07-12T04:03:34.409Z,15.80
2018-07-12T04:06:01.928Z,15.80
2018-07-12T04:08:29.388Z,15.80
2018-07-12T04:10:56.934Z,15.90
2018-07-12T04:13:24.432Z,15.90
2018-07-12T04:15:51.989Z,15.90
2018-07-12T04:18:19.484Z,15.80
2018-07-12T04:20:47.017Z,15.80
2018-07-12T04:23:14.752Z,15.80
2018-07-12T04:25:42.396Z,15.80
2018-07-12T04:28:09.888Z,15.70
2018-07-12T04:30:37.331Z,15.70
2018-07-12T04:33:04.877Z,15.70
2018-07-12T04:35:32.377Z,15.70
2018-07-12T04:37:59.934Z,15.70
2018-07-12T04:40:27.403Z,15.70
2018-07-12T04:45:22.762Z,15.80
2018-07-12T04:47:50.311Z,15.80
2018-07-12T04:50:17.897Z,15.80
2018-07-12T04:52:45.361Z,15.80
2018-07-12T04:55:12.944Z,15.80
2018-07-12T05:00:08.184Z,15.80
2018-07-12T05:02:35.654Z,15.80
2018-07-12T05:05:03.176Z,15.80
2018-07-12T05:07:30.647Z,15.90
2018-07-12T05:09:58.235Z,15.90
2018-07-12T05:12:25.767Z,16.00
2018-07-12T05:14:53.297Z,16.20
2018-07-12T05:17:20.931Z,16.20
2018-07-12T05:19:48.403Z,16.40
2018-07-12T05:22:16.018Z,16.60
2018-07-12T05:24:43.490Z,16.60
2018-07-12T05:27:11.001Z,16.80
2018-07-12T05:29:38.498Z,16.90
2018-07-12T05:32:06.134Z,17.10
2018-07-12T05:34:33.634Z,17.70
2018-07-12T05:37:03.173Z,18.30
2018-07-12T05:39:32.093Z,18.60
2018-07-12T05:42:01.113Z,18.80
2018-07-12T05:44:29.909Z,18.90
2018-07-12T05:46:58.942Z,19.30
2018-07-12T05:49:28.046Z,19.00
2018-07-12T05:51:56.972Z,18.50
2018-07-12T05:54:26.039Z,18.10
2018-07-12T05:56:55.092Z,17.90
2018-07-12T05:59:24.147Z,17.70
2018-07-12T06:02:04.102Z,17.50
2018-07-12T06:04:32.843Z,17.50
2018-07-12T06:07:01.701Z,17.50
2018-07-12T06:09:31.076Z,17.50
2018-07-12T06:11:59.813Z,17.40
2018-07-12T06:14:29.103Z,17.40
2018-07-12T06:16:57.940Z,17.40
2018-07-12T06:19:27.011Z,17.40
2018-07-12T06:21:56.055Z,17.50
2018-07-12T06:24:25.308Z,17.70
2018-07-12T06:26:54.569Z,17.60
2018-07-12T06:29:24.265Z,17.60
2018-07-12T06:31:53.523Z,18.00
2018-07-12T06:34:22.329Z,18.20
2018-07-12T06:36:51.451Z,18.30
2018-07-12T06:39:20.298Z,18.20
2018-07-12T06:41:49.105Z,18.20
2018-07-12T06:44:17.977Z,18.40
2018-07-12T06:46:47.150Z,18.40
2018-07-12T06:49:16.460Z,18.40
2018-07-12T06:51:45.603Z,18.50
2018-07-12T06:54:14.589Z,18.90
2018-07-12T06:56:43.572Z,19.60
2018-07-12T06:59:13.069Z,19.80
2018-07-12T07:01:41.911Z,19.70
2018-07-12T07:06:39.335Z,19.20
2018-07-12T07:09:09.937Z,19.20
2018-07-12T07:11:38.763Z,19.40
2018-07-12T07:14:07.757Z,19.70
2018-07-12T07:16:36.579Z,19.80
2018-07-12T07:19:05.583Z,20.10
2018-07-12T07:21:34.477Z,20.80
2018-07-12T07:24:03.491Z,21.60
2018-07-12T07:26:32.424Z,21.50
2018-07-12T07:29:01.739Z,21.40
2018-07-12T07:33:59.018Z,20.40
2018-07-12T07:36:27.803Z,20.00
2018-07-12T07:38:56.613Z,19.70
2018-07-12T07:41:25.461Z,19.50
2018-07-12T07:43:54.208Z,19.30
2018-07-12T07:46:23.359Z,19.40
2018-07-12T07:48:52.283Z,19.40
2018-07-12T07:51:21.116Z,19.60
2018-07-12T07:53:49.981Z,19.70
2018-07-12T07:56:18.868Z,20.20
2018-07-12T07:58:47.712Z,20.50
2018-07-12T08:01:16.614Z,20.60
2018-07-12T08:03:45.566Z,20.90
2018-07-12T08:06:14.516Z,20.70
2018-07-12T08:08:43.324Z,20.80
2018-07-12T08:11:12.340Z,20.80
2018-07-12T08:13:41.122Z,20.60
2018-07-12T08:16:09.940Z,20.40
2018-07-12T08:18:38.870Z,20.40
2018-07-12T08:21:13.872Z,20.50
2018-07-12T08:23:43.706Z,20.50
2018-07-12T08:26:12.533Z,20.40
2018-07-12T08:28:41.310Z,20.50
2018-07-12T08:31:10.202Z,20.70
2018-07-12T08:33:38.991Z,20.70
2018-07-12T08:36:08.041Z,20.80
2018-07-12T08:38:36.787Z,20.90
2018-07-12T08:41:05.647Z,21.30
2018-07-12T08:43:34.815Z,21.40
2018-07-12T08:46:03.694Z,21.40
2018-07-12T08:48:32.495Z,21.50
2018-07-12T08:51:01.419Z,21.70
2018-07-12T08:53:30.271Z,21.80
2018-07-12T08:55:59.086Z,21.90
2018-07-12T08:58:27.905Z,22.30
2018-07-12T09:00:56.652Z,22.60
2018-07-12T09:03:25.486Z,22.90
2018-07-12T09:05:54.335Z,23.10
2018-07-12T09:08:23.092Z,23.20
2018-07-12T09:10:51.903Z,23.10
2018-07-12T09:13:20.743Z,23.30
2018-07-12T09:15:49.647Z,23.70
2018-07-12T09:18:18.383Z,23.70
2018-07-12T09:20:47.190Z,23.20
2018-07-12T09:23:16.114Z,22.60
2018-07-12T09:25:45.046Z,22.50
2018-07-12T09:30:42.449Z,22.20
2018-07-12T09:33:11.359Z,22.10
2018-07-12T09:35:40.132Z,22.00
2018-07-12T09:38:52.796Z,21.90
2018-07-12T09:41:23.000Z,22.10
2018-07-12T09:43:52.288Z,22.30
2018-07-12T09:46:21.462Z,22.50
2018-07-12T09:48:51.461Z,22.90
2018-07-12T09:53:49.646Z,23.10
2018-07-12T09:56:18.593Z,23.20
2018-07-12T09:58:47.420Z,23.10
2018-07-12T10:01:21.672Z,22.70
2018-07-12T10:03:51.945Z,22.90
2018-07-12T10:06:30.901Z,23.10
2018-07-12T10:09:05.107Z,23.10
2018-07-12T10:11:39.159Z,23.00
2018-07-12T10:14:13.270Z,22.80
2018-07-12T10:16:45.676Z,23.10
2018-07-12T10:19:14.980Z,23.20
2018-07-12T10:21:44.248Z,23.10
2018-07-12T10:24:13.141Z,22.90
2018-07-12T10:26:42.234Z,22.60
2018-07-12T10:29:10.936Z,22.40
2018-07-12T10:31:39.808Z,22.40
2018-07-12T10:34:08.618Z,22.40
2018-07-12T10:36:37.419Z,22.20
2018-07-12T10:39:08.706Z,22.30
2018-07-12T10:41:37.786Z,22.60
2018-07-12T10:44:06.944Z,22.30
2018-07-12T10:46:35.804Z,22.20
2018-07-12T10:49:04.705Z,22.20
2018-07-12T10:51:33.570Z,22.30
2018-07-12T10:54:02.295Z,22.30
2018-07-12T10:56:31.085Z,22.30
2018-07-12T10:58:59.987Z,22.40
2018-07-12T11:01:28.625Z,22.70
2018-07-12T11:03:57.408Z,23.20
2018-07-12T11:06:26.841Z,23.40
2018-07-12T11:08:55.769Z,23.50
2018-07-12T11:11:24.906Z,23.60
2018-07-12T11:13:54.430Z,23.80
2018-07-12T11:16:24.519Z,23.80
2018-07-12T11:18:53.384Z,23.90
2018-07-12T11:21:22.299Z,24.30
2018-07-12T11:23:51.011Z,24.30
2018-07-12T11:26:20.078Z,24.20
2018-07-12T11:28:49.585Z,24.20
2018-07-12T11:31:18.572Z,24.30
2018-07-12T11:33:48.561Z,24.60
2018-07-12T11:36:17.628Z,24.80
2018-07-12T11:38:47.178Z,24.90
2018-07-12T11:41:16.046Z,24.50
2018-07-12T11:43:44.821Z,24.30
2018-07-12T11:46:14.975Z,25.20
2018-07-12T11:48:44.430Z,26.70
2018-07-12T11:51:13.385Z,28.60
2018-07-12T11:56:10.646Z,28.70
2018-07-12T11:58:39.634Z,27.70
2018-07-12T12:03:36.858Z,27.80
2018-07-12T12:06:05.672Z,28.50
2018-07-12T12:08:34.510Z,29.10
2018-07-12T12:11:03.260Z,29.70
2018-07-12T12:13:32.170Z,29.60
2018-07-12T12:16:00.974Z,29.20
2018-07-12T12:18:29.899Z,28.40
2018-07-12T12:20:58.702Z,27.40
2018-07-12T12:23:27.828Z,26.70
2018-07-12T12:25:56.591Z,25.80
2018-07-12T12:28:25.736Z,24.90
2018-07-12T12:30:54.826Z,25.20
2018-07-12T12:33:24.914Z,26.30
2018-07-12T12:35:53.701Z,27.40
2018-07-12T12:38:22.454Z,28.10
2018-07-12T12:40:51.248Z,28.50
2018-07-12T12:43:20.042Z,28.60
2018-07-12T12:45:48.911Z,29.00
2018-07-12T12:48:17.915Z,29.40
2018-07-12T12:50:47.028Z,29.90
2018-07-12T12:53:15.814Z,31.10
2018-07-12T12:55:44.857Z,32.00
2018-07-12T12:58:13.573Z,32.20
2018-07-12T13:00:42.402Z,32.20
2018-07-12T13:03:11.360Z,32.70
2018-07-12T13:05:40.152Z,32.40
2018-07-12T13:08:09.085Z,30.90
2018-07-12T13:10:37.882Z,29.60
2018-07-12T13:13:06.738Z,29.70
2018-07-12T13:15:35.560Z,29.30
2018-07-12T13:18:04.731Z,29.10
2018-07-12T13:20:33.604Z,28.90
2018-07-12T13:23:02.426Z,29.40
2018-07-12T13:25:31.298Z,30.10
2018-07-12T13:28:00.143Z,29.50
2018-07-12T13:30:29.485Z,28.20
2018-07-12T13:32:58.723Z,27.40
2018-07-12T13:35:27.535Z,26.60
2018-07-12T13:37:56.975Z,26.60
2018-07-12T13:40:26.282Z,27.40
2018-07-12T13:42:55.544Z,27.80
2018-07-12T13:45:24.565Z,28.20
2018-07-12T13:47:53.451Z,29.00
2018-07-12T13:50:22.362Z,28.90
2018-07-12T13:52:51.601Z,29.60
2018-07-12T13:55:20.517Z,29.40
2018-07-12T13:57:49.411Z,28.70
2018-07-12T14:00:18.303Z,28.70
2018-07-12T14:02:47.137Z,28.00
2018-07-12T14:05:15.957Z,27.20
2018-07-12T14:07:44.989Z,27.00
2018-07-12T14:10:13.734Z,27.80
2018-07-12T14:12:42.620Z,27.60
2018-07-12T14:15:11.439Z,27.90
2018-07-12T14:17:40.280Z,28.20
2018-07-12T14:22:37.713Z,29.10
2018-07-12T14:25:06.635Z,28.70
2018-07-12T14:27:35.550Z,27.80
2018-07-12T14:32:32.779Z,26.70
2018-07-12T14:35:01.694Z,26.40
2018-07-12T14:37:30.515Z,25.80
2018-07-12T14:39:59.270Z,26.30
2018-07-12T14:42:28.746Z,27.30
2018-07-12T14:45:00.073Z,27.50
2018-07-12T14:47:28.905Z,28.10
2018-07-12T14:49:57.772Z,28.10
2018-07-12T14:52:26.653Z,28.50
2018-07-12T14:54:55.567Z,29.20
2018-07-12T14:57:24.445Z,29.40
2018-07-12T14:59:53.215Z,28.10
2018-07-12T15:02:22.118Z,27.90
2018-07-12T15:04:50.849Z,27.50
2018-07-12T15:07:19.719Z,27.10
2018-07-12T15:09:48.676Z,27.10
2018-07-12T15:12:17.574Z,27.00
2018-07-12T15:14:46.487Z,26.30
2018-07-12T15:17:15.140Z,25.80
2018-07-12T15:19:43.942Z,25.30
2018-07-12T15:22:12.765Z,25.10
2018-07-12T15:24:41.648Z,25.00
2018-07-12T15:27:10.439Z,24.80
2018-07-12T15:29:39.375Z,24.70
2018-07-12T15:32:08.618Z,24.80
2018-07-12T15:34:37.375Z,24.70
2018-07-12T15:37:06.256Z,24.80
2018-07-12T15:39:35.104Z,24.90
2018-07-12T15:42:04.084Z,25.00
2018-07-12T15:44:32.955Z,24.80
2018-07-12T15:47:01.738Z,24.70
2018-07-12T15:49:30.657Z,24.90
2018-07-12T15:51:59.445Z,25.00
2018-07-12T15:54:28.336Z,25.30
2018-07-12T15:56:57.161Z,25.60
2018-07-12T15:59:26.112Z,25.50
2018-07-12T16:01:55.005Z,25.50
2018-07-12T16:04:23.827Z,25.20
2018-07-12T16:06:52.831Z,25.20
2018-07-12T16:09:21.707Z,25.10
2018-07-12T16:11:50.502Z,24.80
2018-07-12T16:14:19.326Z,24.60
2018-07-12T16:16:48.179Z,24.50
2018-07-12T16:19:17.014Z,24.80
2018-07-12T16:21:45.724Z,24.90
2018-07-12T16:24:14.516Z,25.00
2018-07-12T16:26:43.321Z,24.90
2018-07-12T16:29:13.077Z,24.90
2018-07-12T16:31:42.099Z,24.90
2018-07-12T16:34:10.920Z,24.90
2018-07-12T16:36:39.755Z,24.80
2018-07-12T16:39:09.140Z,24.60
2018-07-12T16:41:38.250Z,24.50
2018-07-12T16:44:07.141Z,24.40
2018-07-12T16:46:35.944Z,24.50
2018-07-12T16:49:04.854Z,24.60
2018-07-12T16:51:33.753Z,24.50
2018-07-12T16:54:03.256Z,24.50
2018-07-12T16:56:32.315Z,24.30
2018-07-12T16:59:01.213Z,24.00
2018-07-12T17:01:30.043Z,23.80
2018-07-12T17:03:59.051Z,23.70
2018-07-12T17:06:28.414Z,23.60
2018-07-12T17:08:57.249Z,23.50
2018-07-12T17:11:26.107Z,23.50
2018-07-12T17:13:54.907Z,23.50
2018-07-12T17:16:23.833Z,23.40
2018-07-12T17:18:53.671Z,23.50
2018-07-12T17:21:22.299Z,23.60
2018-07-12T17:23:51.519Z,23.70
2018-07-12T17:26:20.621Z,23.80
2018-07-12T17:31:18.159Z,23.70
2018-07-12T17:33:47.263Z,23.50
2018-07-12T17:36:16.097Z,23.50
2018-07-12T17:38:54.845Z,23.50
2018-07-12T17:41:23.869Z,23.50
2018-07-12T17:43:52.835Z,23.60
2018-07-12T17:46:21.845Z,23.60
2018-07-12T17:48:50.741Z,23.60
2018-07-12T17:51:19.731Z,23.60
2018-07-12T17:53:48.653Z,23.60
2018-07-12T17:56:17.548Z,23.60
2018-07-12T17:58:46.440Z,23.50
2018-07-12T18:01:15.319Z,23.60
2018-07-12T18:03:44.138Z,23.10
2018-07-12T18:06:12.835Z,22.20
2018-07-12T18:08:41.717Z,21.50
2018-07-12T18:11:10.607Z,20.90
2018-07-12T18:13:39.441Z,20.50
2018-07-12T18:16:08.229Z,20.20
2018-07-12T18:18:37.092Z,20.20
2018-07-12T18:21:06.456Z,20.40
2018-07-12T18:23:40.989Z,20.60
2018-07-12T18:26:09.874Z,20.90
2018-07-12T18:28:38.779Z,21.20
2018-07-12T18:31:07.722Z,21.40
2018-07-12T18:33:36.718Z,21.50
2018-07-12T18:36:05.598Z,21.70
2018-07-12T18:38:34.437Z,21.80
2018-07-12T18:41:03.288Z,21.80
2018-07-12T18:43:32.114Z,21.90
2018-07-12T18:46:01.026Z,21.90
2018-07-12T18:48:29.895Z,22.10
2018-07-12T18:50:58.722Z,22.10
2018-07-12T18:53:27.771Z,22.20
2018-07-12T18:55:57.785Z,22.30
2018-07-12T18:58:26.566Z,22.30
2018-07-12T19:00:55.305Z,22.40
2018-07-12T19:03:24.197Z,22.40
2018-07-12T19:05:52.942Z,22.40
2018-07-12T19:10:50.183Z,22.40
2018-07-12T19:13:18.986Z,22.40
2018-07-12T19:15:48.005Z,22.40
2018-07-12T19:18:16.864Z,22.30
2018-07-12T19:23:16.135Z,22.30
2018-07-12T19:25:44.870Z,22.30
2018-07-12T19:28:13.678Z,22.20
2018-07-12T19:33:20.886Z,22.10
2018-07-12T19:35:55.452Z,22.00
2018-07-12T19:38:24.393Z,21.90
2018-07-12T19:40:59.201Z,21.90
2018-07-12T19:43:28.072Z,21.80
2018-07-12T19:45:56.886Z,21.80
2018-07-12T19:48:25.726Z,21.80
2018-07-12T19:50:54.976Z,21.70
2018-07-12T19:53:23.893Z,21.70
2018-07-12T19:55:52.711Z,21.70
2018-07-12T19:58:21.588Z,21.70
2018-07-12T20:00:57.933Z,21.70
2018-07-12T20:03:32.072Z,21.70
2018-07-12T20:06:11.144Z,21.70
2018-07-12T20:08:39.921Z,21.70
2018-07-12T20:11:08.816Z,21.60
2018-07-12T20:13:38.139Z,21.70
2018-07-12T20:16:06.977Z,21.60
2018-07-12T20:18:46.681Z,21.60
2018-07-12T20:21:15.654Z,21.70
2018-07-12T20:23:50.175Z,21.60
2018-07-12T20:26:19.040Z,21.60
2018-07-12T20:28:58.828Z,21.60
2018-07-12T20:31:27.640Z,21.60
2018-07-12T20:33:56.404Z,21.60
2018-07-12T20:36:25.386Z,21.50
2018-07-12T20:38:54.120Z,21.50
2018-07-12T20:41:22.970Z,21.50
2018-07-12T20:43:51.993Z,21.50
2018-07-12T20:46:20.932Z,21.40
2018-07-12T20:48:49.773Z,21.50
2018-07-12T20:51:18.618Z,21.40
2018-07-12T20:53:47.399Z,21.40
2018-07-12T20:56:16.323Z,21.40
2018-07-12T20:58:45.408Z,21.40
2018-07-12T21:01:14.236Z,21.40
2018-07-12T21:03:43.042Z,21.30
2018-07-12T21:06:11.860Z,21.30
2018-07-12T21:08:40.722Z,21.30
2018-07-12T21:11:09.566Z,21.20
2018-07-12T21:13:38.434Z,21.20
2018-07-12T21:16:07.682Z,21.20
2018-07-12T21:18:36.736Z,21.20
2018-07-12T21:21:06.822Z,21.10
2018-07-12T21:23:36.007Z,21.00
2018-07-12T21:26:04.863Z,21.00
2018-07-12T21:31:02.475Z,20.90
2018-07-12T21:33:31.508Z,20.90
2018-07-12T21:36:00.224Z,20.90
2018-07-12T21:38:29.030Z,20.80
2018-07-12T21:40:57.837Z,20.80
2018-07-12T21:43:26.936Z,20.70
2018-07-12T21:45:55.888Z,20.70
2018-07-12T21:48:25.302Z,20.70
2018-07-12T21:50:54.140Z,20.70
2018-07-12T21:53:22.873Z,20.70
2018-07-12T21:55:51.688Z,20.70
2018-07-12T21:58:20.514Z,20.70
2018-07-12T22:00:49.278Z,20.60
2018-07-12T22:03:18.178Z,20.60
2018-07-12T22:05:47.213Z,20.60
2018-07-12T22:08:22.040Z,20.60
2018-07-12T22:10:52.356Z,20.50
2018-07-12T22:13:21.933Z,20.50
2018-07-12T22:15:50.751Z,20.50
2018-07-12T22:18:19.672Z,20.40
2018-07-12T22:20:48.520Z,20.30
2018-07-12T22:23:17.481Z,20.30
2018-07-12T22:25:46.378Z,20.20
2018-07-12T22:28:15.845Z,20.20
2018-07-12T22:30:44.777Z,20.20
2018-07-12T22:33:13.610Z,20.20
2018-07-12T22:35:42.478Z,20.10
2018-07-12T22:38:11.388Z,20.20
2018-07-12T22:40:40.491Z,20.20
2018-07-12T22:43:09.356Z,20.20
2018-07-12T22:45:38.149Z,20.20
2018-07-12T22:48:07.004Z,20.20
2018-07-12T22:50:36.314Z,20.20
2018-07-12T22:53:05.187Z,20.30
2018-07-12T22:55:33.989Z,20.30
2018-07-12T22:58:02.902Z,20.30
2018-07-12T23:00:31.975Z,20.30
2018-07-12T23:03:00.798Z,20.20
2018-07-12T23:05:29.681Z,20.20
2018-07-12T23:07:58.526Z,20.20
2018-07-12T23:10:27.297Z,20.20
2018-07-12T23:12:56.224Z,20.20
2018-07-12T23:15:25.182Z,20.20
2018-07-12T23:17:54.054Z,20.20
2018-07-12T23:20:23.122Z,20.20
2018-07-12T23:22:52.014Z,20.20
2018-07-12T23:25:20.854Z,20.20
2018-07-12T23:27:49.824Z,20.20
2018-07-12T23:30:18.658Z,20.20
2018-07-12T23:32:47.547Z,20.20
2018-07-12T23:35:16.361Z,20.20
2018-07-12T23:37:45.067Z,20.20
2018-07-12T23:40:13.937Z,20.20
2018-07-12T23:42:42.824Z,20.10
2018-07-12T23:45:11.658Z,20.10
2018-07-12T23:47:40.376Z,20.10
2018-07-12T23:50:09.221Z,20.00
2018-07-12T23:52:38.076Z,20.00
2018-07-12T23:55:06.880Z,19.90
2018-07-12T23:57:35.705Z,19.90
